Jerome, Michigan
Current Conditions -  °F | °C
As of 9:54 AM on Wednesday 26 Nov 2014 (Local Time) from KJYM Reporting Station
Overcast Overcast  
Wind Chill: -6°   Ceiling: 1600
Heat Index: -3°   Visibility: 10mi
Dew Point: -6°   Wind: 5mph
Humidity: 78%   Direction: 100°E
Pressure: 30.14"   Gusts: NA
Location:  42.03°N, 84.47°W
Report Text: KJYM 261454Z AUTO 10004KT 10SM OVC016 M03/M06 A3014 RMK AO2 T10261059
Loading
Personal Weather Stations






























Interactive Weather Map New forecast layout! Learn more

10-Day Weather Forecast

Advertisements
Track Severe Weather on mobile